createdAt,value
2019-05-09T00:01:54.915Z,1.00
2019-05-09T00:04:34.968Z,1.00
2019-05-09T00:10:15.197Z,1.00
2019-05-09T00:12:44.139Z,1.00
2019-05-09T00:15:13.768Z,1.00
2019-05-09T00:18:03.873Z,1.00
2019-05-09T00:23:14.210Z,1.00
2019-05-09T00:25:43.439Z,1.00
2019-05-09T00:31:40.538Z,1.00
2019-05-09T00:38:05.829Z,1.00
2019-05-09T00:40:58.658Z,1.00
2019-05-09T00:43:24.714Z,1.00
2019-05-09T00:46:34.115Z,1.00
2019-05-09T00:49:43.470Z,1.00
2019-05-09T00:52:14.150Z,1.00
2019-05-09T00:55:04.012Z,1.00
2019-05-09T00:57:53.551Z,1.00
2019-05-09T01:00:43.788Z,1.00
2019-05-09T01:03:33.746Z,1.00
2019-05-09T01:06:04.164Z,1.00
2019-05-09T01:08:53.646Z,1.00
2019-05-09T01:11:43.967Z,1.00
2019-05-09T01:14:33.969Z,1.00
2019-05-09T01:17:05.201Z,1.00
2019-05-09T01:19:53.926Z,1.00
2019-05-09T01:22:43.676Z,1.00
2019-05-09T01:25:24.483Z,1.00
2019-05-09T01:28:05.687Z,1.00
2019-05-09T01:30:46.434Z,1.00
2019-05-09T01:33:34.465Z,1.00
2019-05-09T01:38:43.275Z,1.00
2019-05-09T01:41:34.022Z,1.00
2019-05-09T01:44:23.811Z,1.00
2019-05-09T01:46:54.040Z,1.00
2019-05-09T01:49:43.165Z,1.00
2019-05-09T01:55:09.511Z,1.00
2019-05-09T01:57:57.679Z,1.00
2019-05-09T02:00:45.903Z,1.00
2019-05-09T02:03:14.977Z,1.00
2019-05-09T02:06:03.593Z,1.00
2019-05-09T02:08:34.661Z,1.00
2019-05-09T02:14:00.089Z,1.00
2019-05-09T02:16:37.214Z,1.00
2019-05-09T02:19:44.488Z,1.00
2019-05-09T02:22:34.488Z,1.00
2019-05-09T02:25:07.709Z,1.00
2019-05-09T02:27:36.871Z,1.00
2019-05-09T02:30:25.674Z,1.00
2019-05-09T02:33:16.538Z,1.00
2019-05-09T02:36:04.722Z,1.00
2019-05-09T02:39:11.979Z,1.00
2019-05-09T02:42:08.714Z,1.00
2019-05-09T02:44:52.232Z,1.00
2019-05-09T02:47:40.422Z,1.00
2019-05-09T02:50:28.961Z,1.00
2019-05-09T02:55:54.948Z,1.00
2019-05-09T03:01:44.233Z,1.00
2019-05-09T03:04:32.746Z,1.00
2019-05-09T03:07:02.035Z,1.00
2019-05-09T03:09:50.221Z,1.00
2019-05-09T03:12:39.864Z,1.00
2019-05-09T03:15:29.321Z,1.00
2019-05-09T03:21:18.911Z,1.00
2019-05-09T03:24:09.291Z,1.00
2019-05-09T03:29:58.888Z,1.00
2019-05-09T03:35:37.774Z,1.00
2019-05-09T03:38:25.818Z,1.00
2019-05-09T03:40:54.902Z,1.00
2019-05-09T03:43:23.918Z,1.00
2019-05-09T03:46:32.648Z,1.00
2019-05-09T03:52:07.365Z,1.00
2019-05-09T03:54:54.885Z,1.00
2019-05-09T03:58:02.460Z,1.00
2019-05-09T04:00:50.630Z,1.00
2019-05-09T04:03:41.240Z,1.00
2019-05-09T04:09:41.054Z,1.00
2019-05-09T04:12:29.806Z,1.00
2019-05-09T04:14:58.919Z,1.00
2019-05-09T04:17:47.615Z,1.00
2019-05-09T04:20:37.802Z,1.00
2019-05-09T04:23:27.660Z,1.00
2019-05-09T04:26:19.388Z,1.00
2019-05-09T04:29:09.225Z,1.00
2019-05-09T04:32:18.301Z,1.00
2019-05-09T04:34:57.807Z,1.00
2019-05-09T04:37:28.145Z,1.00
2019-05-09T04:40:03.036Z,1.00
2019-05-09T04:42:48.565Z,1.00
2019-05-09T04:48:37.581Z,1.00
2019-05-09T04:51:25.706Z,1.00
2019-05-09T04:54:13.804Z,1.00
2019-05-09T04:57:01.829Z,1.00
2019-05-09T04:59:50.362Z,1.00
2019-05-09T05:02:38.474Z,1.00
2019-05-09T05:05:28.395Z,1.00
2019-05-09T05:11:04.171Z,1.00
2019-05-09T05:16:40.087Z,1.00
2019-05-09T05:19:31.355Z,1.00
2019-05-09T05:24:59.783Z,1.00
2019-05-09T05:27:28.096Z,1.00
2019-05-09T05:29:58.333Z,1.00
2019-05-09T05:33:07.984Z,1.00
2019-05-09T05:35:39.978Z,1.00
2019-05-09T05:38:08.780Z,1.00
2019-05-09T05:40:45.328Z,1.00
2019-05-09T05:43:08.914Z,1.00
2019-05-09T05:45:47.828Z,1.00
2019-05-09T05:48:20.296Z,1.00
2019-05-09T05:50:49.105Z,1.00
2019-05-09T05:53:18.395Z,1.00
2019-05-09T05:55:50.451Z,1.00
2019-05-09T05:58:18.090Z,1.00
2019-05-09T06:00:48.112Z,1.00
2019-05-09T06:03:17.822Z,1.00
2019-05-09T06:05:51.445Z,1.00
2019-05-09T06:08:17.773Z,1.00
2019-05-09T06:11:11.431Z,1.00
2019-05-09T06:14:03.962Z,1.00
2019-05-09T06:16:28.110Z,1.00
2019-05-09T06:19:17.848Z,1.00
2019-05-09T06:22:08.217Z,1.00
2019-05-09T06:24:38.708Z,1.00
2019-05-09T06:27:27.570Z,1.00
2019-05-09T06:30:41.178Z,1.00
2019-05-09T06:33:28.593Z,1.00
2019-05-09T06:35:59.042Z,1.00
2019-05-09T06:38:28.969Z,1.00
2019-05-09T06:41:17.652Z,1.00
2019-05-09T06:44:28.121Z,1.00
2019-05-09T06:47:04.343Z,1.00
2019-05-09T06:49:37.729Z,1.00
2019-05-09T06:52:28.063Z,1.00
2019-05-09T06:55:17.361Z,1.00
2019-05-09T06:58:24.515Z,1.00
2019-05-09T07:01:31.682Z,1.00
2019-05-09T07:04:38.973Z,1.00
2019-05-09T07:07:48.068Z,1.00
2019-05-09T07:10:17.800Z,1.00
2019-05-09T07:13:07.963Z,1.00
2019-05-09T07:15:55.776Z,1.00
2019-05-09T07:18:43.885Z,1.00
2019-05-09T07:21:51.065Z,1.00
2019-05-09T07:24:33.865Z,1.00
2019-05-09T07:27:14.796Z,1.00
2019-05-09T07:29:58.175Z,1.00
2019-05-09T07:35:21.402Z,1.00
2019-05-09T07:38:09.452Z,1.00
2019-05-09T07:40:58.200Z,1.00
2019-05-09T07:43:47.869Z,1.00
2019-05-09T07:49:14.034Z,1.00
2019-05-09T07:52:06.845Z,1.00
2019-05-09T07:54:51.869Z,1.00
2019-05-09T07:57:46.913Z,1.00
2019-05-09T08:00:33.268Z,1.00
2019-05-09T08:03:21.444Z,1.00
2019-05-09T08:06:09.567Z,1.00
2019-05-09T08:08:58.295Z,1.00
2019-05-09T08:11:48.287Z,1.00
2019-05-09T08:14:37.804Z,1.00
2019-05-09T08:17:28.606Z,1.00
2019-05-09T08:20:17.516Z,1.00
2019-05-09T08:23:08.689Z,1.00
2019-05-09T08:25:49.642Z,1.00
2019-05-09T09:11:00.549Z,75.80
2019-05-09T09:13:59.351Z,79.00
2019-05-09T09:16:30.061Z,78.80
2019-05-09T09:19:00.107Z,78.00
2019-05-09T09:21:29.860Z,77.00
2019-05-09T09:23:59.654Z,76.10
2019-05-09T09:26:29.498Z,75.90
2019-05-09T09:28:59.275Z,76.20
2019-05-09T09:31:29.045Z,76.30
2019-05-09T09:33:58.829Z,76.60
2019-05-09T09:36:28.782Z,77.00
2019-05-09T09:38:58.842Z,77.10
2019-05-09T09:41:28.899Z,77.60
2019-05-09T09:43:59.002Z,77.50
2019-05-09T09:46:28.814Z,78.00
2019-05-09T09:48:58.922Z,78.50
2019-05-09T09:51:28.804Z,78.60
2019-05-09T09:53:58.592Z,79.20
2019-05-09T09:56:28.597Z,79.80
2019-05-09T09:59:23.339Z,79.80
2019-05-09T10:01:54.702Z,81.40
2019-05-09T10:04:28.237Z,81.50
2019-05-09T10:06:58.310Z,82.00
2019-05-09T10:09:28.394Z,81.50
2019-05-09T10:12:00.712Z,82.10
2019-05-09T10:14:33.314Z,81.50
2019-05-09T10:17:12.951Z,81.00
2019-05-09T10:19:54.538Z,80.70
2019-05-09T10:22:26.364Z,80.70
2019-05-09T10:24:58.549Z,80.40
2019-05-09T10:27:28.506Z,80.40
2019-05-09T10:30:00.514Z,79.80
2019-05-09T10:32:30.355Z,79.60
2019-05-09T10:35:00.149Z,79.30
2019-05-09T10:37:29.927Z,79.20
2019-05-09T10:39:59.773Z,78.30
2019-05-09T10:43:00.953Z,77.70
2019-05-09T10:45:41.036Z,77.80
2019-05-09T10:48:11.016Z,78.20
2019-05-09T10:50:44.501Z,77.70
2019-05-09T10:53:12.372Z,76.50
2019-05-09T10:55:42.222Z,76.30
2019-05-09T10:58:11.969Z,75.80
2019-05-09T11:00:41.736Z,75.50
2019-05-09T11:03:11.523Z,75.30
2019-05-09T11:05:41.397Z,74.20
2019-05-09T11:08:11.509Z,73.90
2019-05-09T11:10:41.268Z,73.70
2019-05-09T11:13:11.148Z,74.40
2019-05-09T11:15:41.289Z,73.80
2019-05-09T11:18:11.267Z,73.60
2019-05-09T11:20:41.071Z,72.70
2019-05-09T11:23:10.848Z,72.80
2019-05-09T11:25:40.636Z,73.80
2019-05-09T11:28:14.789Z,72.10
2019-05-09T11:30:41.981Z,71.70
2019-05-09T11:33:11.794Z,71.70
2019-05-09T11:35:41.601Z,71.80
2019-05-09T11:38:11.526Z,71.90
2019-05-09T11:40:41.297Z,71.20
2019-05-09T11:43:11.404Z,71.20
2019-05-09T11:45:41.296Z,71.80
2019-05-09T11:48:11.142Z,72.40
2019-05-09T11:50:40.907Z,72.40
2019-05-09T11:53:10.676Z,72.20
2019-05-09T11:55:43.132Z,72.40
2019-05-09T11:58:12.054Z,72.40
2019-05-09T12:00:41.845Z,72.40
2019-05-09T12:03:11.702Z,72.10
2019-05-09T12:05:41.544Z,72.10
2019-05-09T12:08:11.327Z,72.10
2019-05-09T12:10:41.193Z,72.70
2019-05-09T12:13:11.050Z,72.60
2019-05-09T12:15:40.834Z,73.20
2019-05-09T12:18:11.674Z,73.20
2019-05-09T12:20:41.608Z,73.30
2019-05-09T12:23:11.389Z,73.70
2019-05-09T12:25:41.240Z,74.30
2019-05-09T12:28:11.220Z,74.60
2019-05-09T12:30:41.060Z,75.10
2019-05-09T12:33:10.861Z,75.40
2019-05-09T12:35:40.710Z,75.50
2019-05-09T12:38:10.592Z,75.60
2019-05-09T12:40:40.427Z,75.80
2019-05-09T12:43:10.270Z,75.70
2019-05-09T12:45:40.116Z,75.90
2019-05-09T12:48:14.816Z,75.30
2019-05-09T12:50:41.398Z,76.00
2019-05-09T12:53:11.217Z,76.00
2019-05-09T12:55:41.106Z,75.80
2019-05-09T12:58:27.825Z,75.70
2019-05-09T13:00:59.018Z,76.00
2019-05-09T13:03:29.980Z,75.00
2019-05-09T13:06:00.098Z,76.20
2019-05-09T13:08:30.211Z,76.60
2019-05-09T13:11:02.490Z,76.80
2019-05-09T13:13:32.327Z,76.50
2019-05-09T13:16:14.123Z,76.70
2019-05-09T13:19:02.526Z,76.00
2019-05-09T13:21:33.344Z,76.10
2019-05-09T13:24:03.496Z,75.90
2019-05-09T13:26:33.421Z,76.20
2019-05-09T13:29:03.185Z,76.50
2019-05-09T13:31:34.812Z,76.90
2019-05-09T13:34:04.793Z,77.10
2019-05-09T13:36:34.727Z,77.20
2019-05-09T13:39:08.623Z,77.20
2019-05-09T13:41:38.601Z,77.10
2019-05-09T13:44:13.623Z,76.90
2019-05-09T13:46:40.011Z,77.00
2019-05-09T13:49:14.305Z,76.80
2019-05-09T14:03:05.065Z,77.00
2019-05-09T14:05:41.977Z,77.10
2019-05-09T14:08:13.848Z,77.40
2019-05-09T14:10:44.116Z,77.70
2019-05-09T14:13:14.307Z,78.20
2019-05-09T14:15:44.602Z,78.60
2019-05-09T14:18:14.552Z,78.80
2019-05-09T14:20:44.596Z,78.90
2019-05-09T14:23:14.490Z,78.90
2019-05-09T14:25:48.407Z,78.90
2019-05-09T14:28:15.958Z,78.70
2019-05-09T14:30:47.777Z,78.50
2019-05-09T14:33:17.570Z,78.50
2019-05-09T14:35:47.912Z,78.90
2019-05-09T14:38:18.438Z,79.00
2019-05-09T14:40:59.578Z,79.20
2019-05-09T14:43:29.572Z,79.10
2019-05-09T14:45:59.481Z,78.70
2019-05-09T14:48:29.268Z,78.80
2019-05-09T14:50:59.199Z,78.70
2019-05-09T14:53:29.038Z,78.70
2019-05-09T14:55:58.951Z,78.30
2019-05-09T14:58:28.961Z,78.20
2019-05-09T15:01:00.962Z,77.70
2019-05-09T15:03:30.813Z,77.50
2019-05-09T15:06:00.729Z,77.40
2019-05-09T15:08:31.258Z,77.40
2019-05-09T15:11:01.265Z,77.20
2019-05-09T15:13:31.291Z,77.20
2019-05-09T15:16:01.149Z,77.20
2019-05-09T15:18:30.945Z,76.90
2019-05-09T15:21:00.740Z,76.80
2019-05-09T15:23:30.762Z,76.80
2019-05-09T15:26:00.645Z,77.10
2019-05-09T15:28:30.655Z,77.20
2019-05-09T15:31:00.896Z,77.40
2019-05-09T15:33:30.849Z,77.40
2019-05-09T15:36:00.690Z,77.60
2019-05-09T15:38:33.855Z,77.60
2019-05-09T15:41:04.173Z,77.60
2019-05-09T15:43:34.249Z,77.90
2019-05-09T15:46:11.067Z,78.20
2019-05-09T15:48:40.936Z,78.40
2019-05-09T15:51:10.760Z,78.60
2019-05-09T15:53:40.813Z,78.50
2019-05-09T15:56:10.720Z,78.60
2019-05-09T15:58:40.879Z,78.90
2019-05-09T16:01:10.874Z,79.10
2019-05-09T16:03:40.897Z,79.00
2019-05-09T16:06:21.511Z,79.00
2019-05-09T16:08:52.633Z,79.00
2019-05-09T16:11:23.201Z,79.10
2019-05-09T16:13:53.526Z,78.80
2019-05-09T16:16:28.680Z,78.60
2019-05-09T16:19:00.264Z,78.40
2019-05-09T16:22:49.062Z,78.30
2019-05-09T16:25:19.290Z,78.30
2019-05-09T16:30:51.697Z,78.00
2019-05-09T16:37:10.869Z,77.60
2019-05-09T16:40:42.381Z,77.50
2019-05-09T16:42:44.757Z,77.40
2019-05-09T16:45:18.366Z,77.40
2019-05-09T16:47:48.704Z,77.30
2019-05-09T16:50:20.050Z,77.40
2019-05-09T16:52:49.984Z,77.60
2019-05-09T16:55:24.674Z,77.30
2019-05-09T16:58:04.091Z,77.10
2019-05-09T17:00:41.865Z,77.00
2019-05-09T17:03:11.874Z,77.00
2019-05-09T17:05:43.094Z,76.80
2019-05-09T17:08:13.407Z,77.50
2019-05-09T17:10:43.714Z,76.70
2019-05-09T17:13:13.990Z,76.80
2019-05-09T17:15:44.280Z,76.70
2019-05-09T17:18:14.775Z,76.70
2019-05-09T17:21:15.924Z,76.80
2019-05-09T17:23:38.343Z,76.70
2019-05-09T17:26:08.346Z,76.80
2019-05-09T17:28:38.729Z,76.80
2019-05-09T17:31:09.929Z,76.90
2019-05-09T17:33:40.224Z,76.80
2019-05-09T17:36:22.299Z,77.00
2019-05-09T17:39:51.343Z,77.00
2019-05-09T17:42:43.647Z,76.90
2019-05-09T17:45:48.810Z,77.00
2019-05-09T17:50:00.011Z,77.00
2019-05-09T17:52:31.887Z,76.90
2019-05-09T17:55:44.301Z,77.00
2019-05-09T17:58:58.005Z,76.80
2019-05-09T18:01:48.220Z,76.80
2019-05-09T18:05:01.535Z,77.00
2019-05-09T18:08:37.574Z,76.80
2019-05-09T18:11:22.183Z,76.80
2019-05-09T18:13:52.366Z,76.80
2019-05-09T18:16:22.461Z,76.80
2019-05-09T18:18:59.753Z,76.70
2019-05-09T18:21:29.402Z,76.80
2019-05-09T18:23:59.350Z,76.70
2019-05-09T18:26:32.268Z,76.70
2019-05-09T18:55:08.113Z,77.20
2019-05-09T18:57:33.535Z,77.20
2019-05-09T19:00:52.797Z,77.20
2019-05-09T19:02:44.588Z,77.70
2019-05-09T19:05:36.176Z,77.30
2019-05-09T19:08:10.807Z,77.40
2019-05-09T19:10:39.325Z,77.40
2019-05-09T19:13:09.396Z,77.40
2019-05-09T19:15:46.489Z,77.50
2019-05-09T19:18:34.588Z,77.50
2019-05-09T19:21:11.357Z,77.50
2019-05-09T19:24:12.178Z,77.50
2019-05-09T19:26:30.857Z,77.50
2019-05-09T19:29:02.873Z,77.50
2019-05-09T19:33:08.633Z,77.50
2019-05-09T19:34:14.866Z,77.60
2019-05-09T19:36:44.105Z,77.50
2019-05-09T19:39:16.442Z,77.50
2019-05-09T19:41:48.720Z,77.40
2019-05-09T19:44:18.897Z,77.50
2019-05-09T19:46:53.480Z,77.40
2019-05-09T19:49:25.293Z,77.50
2019-05-09T19:51:55.351Z,77.50
2019-05-09T19:54:27.826Z,77.60
2019-05-09T19:56:59.854Z,77.80
2019-05-09T19:59:34.929Z,77.70
2019-05-09T20:02:05.358Z,77.70
2019-05-09T20:04:39.899Z,77.70
2019-05-09T20:09:57.763Z,77.80
2019-05-09T20:12:38.401Z,77.80
2019-05-09T20:15:12.789Z,77.80
2019-05-09T20:17:50.561Z,78.00
2019-05-09T20:20:26.397Z,78.00
2019-05-09T20:22:57.415Z,78.80
2019-05-09T20:25:29.052Z,78.00
2019-05-09T20:28:04.007Z,77.90
2019-05-09T20:30:32.723Z,78.00
2019-05-09T20:33:03.152Z,78.90
2019-05-09T20:35:35.660Z,78.10
2019-05-09T20:38:06.539Z,78.20
2019-05-09T20:40:39.189Z,78.30
2019-05-09T20:43:17.533Z,78.20
2019-05-09T20:45:55.156Z,78.30
2019-05-09T20:48:32.998Z,78.30
2019-05-09T20:51:02.539Z,78.40
2019-05-09T20:56:16.580Z,78.60
2019-05-09T20:58:50.699Z,78.60
2019-05-09T21:01:21.027Z,78.70
2019-05-09T21:06:29.404Z,78.70
2019-05-09T21:09:01.934Z,78.80
2019-05-09T21:11:35.616Z,78.80
2019-05-09T21:14:08.868Z,78.80
2019-05-09T21:16:44.003Z,78.80
2019-05-09T21:19:15.954Z,78.90
2019-05-09T21:21:46.481Z,78.90
2019-05-09T21:24:20.530Z,79.10
2019-05-09T21:26:50.800Z,79.20
2019-05-09T21:29:21.127Z,79.10
2019-05-09T21:31:52.992Z,79.00
2019-05-09T21:34:23.360Z,79.10
2019-05-09T21:36:58.236Z,79.20
2019-05-09T21:39:31.990Z,79.20
2019-05-09T21:42:01.873Z,79.30
2019-05-09T21:44:33.535Z,79.40
2019-05-09T21:47:06.405Z,79.50
2019-05-09T21:49:43.679Z,79.60
2019-05-09T21:52:15.554Z,79.70
2019-05-09T21:54:48.722Z,79.80
2019-05-09T21:57:54.181Z,79.70
2019-05-09T22:00:14.670Z,79.70
2019-05-09T22:02:47.609Z,79.70
2019-05-09T22:05:17.386Z,79.90
2019-05-09T22:07:49.007Z,79.90
2019-05-09T22:10:22.924Z,80.10
2019-05-09T22:13:02.215Z,80.10
2019-05-09T22:15:34.835Z,81.00
2019-05-09T22:18:11.792Z,80.30
2019-05-09T22:20:40.365Z,80.30
2019-05-09T22:26:07.632Z,80.20
2019-05-09T22:28:45.157Z,80.20
2019-05-09T22:31:18.896Z,80.30
2019-05-09T22:33:57.852Z,80.40
2019-05-09T22:38:05.930Z,80.50
2019-05-09T22:39:37.987Z,80.60
2019-05-09T22:42:11.199Z,80.60
2019-05-09T22:44:42.380Z,80.70
2019-05-09T22:47:15.987Z,80.70
2019-05-09T22:49:58.096Z,80.60
2019-05-09T22:52:22.808Z,80.60
2019-05-09T22:54:55.879Z,80.60
2019-05-09T23:00:04.966Z,80.60
2019-05-09T23:02:39.476Z,80.70
2019-05-09T23:07:57.064Z,80.50
2019-05-09T23:12:00.172Z,80.60
2019-05-09T23:13:01.023Z,80.60
2019-05-09T23:15:38.696Z,80.60
2019-05-09T23:18:11.546Z,80.70
2019-05-09T23:20:51.827Z,80.80
2019-05-09T23:23:32.996Z,80.80
2019-05-09T23:26:15.941Z,80.90
2019-05-09T23:28:46.426Z,80.80
2019-05-09T23:31:34.479Z,80.80
2019-05-09T23:34:08.556Z,80.80
2019-05-09T23:36:39.027Z,80.80
2019-05-09T23:39:30.389Z,80.70
2019-05-09T23:42:00.536Z,80.80
2019-05-09T23:44:30.590Z,80.70
2019-05-09T23:47:00.801Z,80.80
2019-05-09T23:49:30.937Z,80.80
2019-05-09T23:52:01.258Z,80.90
2019-05-09T23:54:49.045Z,80.80
2019-05-09T23:57:37.280Z,80.80
